Time;durP1;ratioP1;P1;durP2;ratioP2;P2;SDS_P1;SDS_P2;PMS_P1;PMS_P2;Temp;Humidity;BMP_temperature;BMP_pressure;BME280_temperature;BME280_humidity;BME280_pressure;Samples;Min_cycle;Max_cycle;Signal;HPM_P1;HPM_P2
2021/01/29 00:00:38;;;;;;;11.20;6.63;;;;;;;;;;5066500;28;20258;-72
2021/01/29 00:03:43;;;;;;;14.40;7.20;;;;;;;;;;5067557;28;20295;-73
2021/01/29 00:06:48;;;;;;;15.63;7.27;;;;;;;;;;5059414;28;20218;-72
2021/01/29 00:09:54;;;;;;;16.17;7.90;;;;;;;;;;5071392;28;20213;-72
2021/01/29 00:12:59;;;;;;;13.03;7.37;;;;;;;;;;5071446;28;20253;-72
2021/01/29 00:16:03;;;;;;;12.57;6.60;;;;;;;;;;5068223;28;20201;-72
2021/01/29 00:19:08;;;;;;;12.73;6.73;;;;;;;;;;5071310;28;20252;-72
2021/01/29 00:22:13;;;;;;;16.10;7.80;;;;;;;;;;5071536;28;20238;-72
2021/01/29 00:25:19;;;;;;;14.10;7.17;;;;;;;;;;5068405;28;20205;-72
2021/01/29 00:28:24;;;;;;;17.43;7.63;;;;;;;;;;5069273;28;20206;-72
2021/01/29 00:31:29;;;;;;;12.03;6.43;;;;;;;;;;5071029;28;20206;-72
2021/01/29 00:34:34;;;;;;;17.30;7.97;;;;;;;;;;5067488;28;20360;-73
2021/01/29 00:37:39;;;;;;;19.40;9.07;;;;;;;;;;5068536;28;20221;-73
2021/01/29 00:40:44;;;;;;;13.53;6.93;;;;;;;;;;5067607;28;20221;-72
2021/01/29 00:43:48;;;;;;;14.57;6.60;;;;;;;;;;5068363;28;20288;-72
2021/01/29 00:46:55;;;;;;;11.77;6.70;;;;;;;;;;5071092;28;20276;-73
2021/01/29 00:49:59;;;;;;;12.83;7.07;;;;;;;;;;5068555;28;20581;-72
2021/01/29 00:53:05;;;;;;;14.53;6.63;;;;;;;;;;5074051;28;20226;-73
2021/01/29 00:56:11;;;;;;;11.83;6.60;;;;;;;;;;5070522;28;20194;-72
2021/01/29 00:59:32;;;;;;;10.80;5.90;;;;;;;;;;5071298;28;20650;-72
2021/01/29 01:02:45;;;;;;;10.10;5.53;;;;;;;;;;5070881;28;20238;-72
2021/01/29 01:05:50;;;;;;;10.73;6.13;;;;;;;;;;5070474;28;20364;-72
2021/01/29 01:09:08;;;;;;;11.63;6.47;;;;;;;;;;5070566;28;20186;-72
2021/01/29 01:12:18;;;;;;;14.43;7.23;;;;;;;;;;5070857;28;20368;-72
2021/01/29 01:15:57;;;;;;;13.80;6.67;;;;;;;;;;5070712;28;20581;-72
2021/01/29 01:19:01;;;;;;;13.90;6.30;;;;;;;;;;5070163;28;20201;-72
2021/01/29 01:22:18;;;;;;;10.23;5.60;;;;;;;;;;5070079;28;20252;-72
2021/01/29 01:25:34;;;;;;;11.23;5.80;;;;;;;;;;5065503;28;20267;-72
2021/01/29 01:28:44;;;;;;;8.83;5.20;;;;;;;;;;5070676;28;20600;-72
2021/01/29 01:31:57;;;;;;;10.57;5.40;;;;;;;;;;5070121;28;20320;-72
2021/01/29 01:35:37;;;;;;;14.50;7.17;;;;;;;;;;5073922;28;20272;-73
2021/01/29 01:38:41;;;;;;;13.77;7.73;;;;;;;;;;5074483;28;20694;-72
2021/01/29 01:41:47;;;;;;;13.77;6.40;;;;;;;;;;5070928;28;20248;-72
2021/01/29 01:44:53;;;;;;;13.33;6.40;;;;;;;;;;5071106;28;20193;-72
2021/01/29 01:48:11;;;;;;;13.00;7.10;;;;;;;;;;5074888;28;20252;-73
2021/01/29 01:51:52;;;;;;;12.17;6.17;;;;;;;;;;5074483;28;20197;-72
2021/01/29 01:55:00;;;;;;;12.37;5.47;;;;;;;;;;5070383;28;20690;-72
2021/01/29 01:58:07;;;;;;;7.93;3.87;;;;;;;;;;5094867;28;20898;-75
2021/01/29 02:01:22;;;;;;;9.00;4.87;;;;;;;;;;5079570;28;20230;-75
2021/01/29 02:05:03;;;;;;;10.40;5.47;;;;;;;;;;5068943;28;20210;-75
2021/01/29 02:08:47;;;;;;;10.17;5.00;;;;;;;;;;5032868;28;20247;-74
2021/01/29 02:12:15;;;;;;;8.63;4.53;;;;;;;;;;5038976;28;20305;-76
2021/01/29 02:15:34;;;;;;;10.50;5.53;;;;;;;;;;5074501;28;20675;-74
2021/01/29 02:18:45;;;;;;;13.33;5.70;;;;;;;;;;5054297;28;20238;-74
2021/01/29 02:22:17;;;;;;;9.17;5.03;;;;;;;;;;5054079;28;20297;-74
2021/01/29 02:26:17;;;;;;;11.23;5.73;;;;;;;;;;5054022;28;20752;-74
2021/01/29 02:29:54;;;;;;;9.83;5.30;;;;;;;;;;5054013;28;20242;-74
2021/01/29 02:33:17;;;;;;;9.97;5.30;;;;;;;;;;5071047;28;20222;-75
2021/01/29 02:36:44;;;;;;;11.03;5.20;;;;;;;;;;5073654;28;20202;-75
2021/01/29 02:40:13;;;;;;;9.63;4.47;;;;;;;;;;5061737;28;20210;-74
2021/01/29 02:43:23;;;;;;;9.10;5.00;;;;;;;;;;5073642;28;20225;-74
2021/01/29 02:46:50;;;;;;;8.67;4.93;;;;;;;;;;5073972;28;20256;-74
2021/01/29 02:50:20;;;;;;;10.90;4.87;;;;;;;;;;5074268;28;20682;-74
2021/01/29 02:54:06;;;;;;;9.23;5.03;;;;;;;;;;5068527;28;20233;-75
2021/01/29 02:57:33;;;;;;;9.93;5.47;;;;;;;;;;5068872;28;20233;-74
2021/01/29 03:01:15;;;;;;;12.03;5.87;;;;;;;;;;5070742;28;20615;-74
2021/01/29 03:04:22;;;;;;;10.23;5.00;;;;;;;;;;5072737;28;20241;-74
2021/01/29 03:07:35;;;;;;;13.23;5.70;;;;;;;;;;5073238;28;20226;-74
2021/01/29 03:11:02;;;;;;;9.63;5.73;;;;;;;;;;5073844;28;20260;-74
2021/01/29 03:14:33;;;;;;;10.70;5.23;;;;;;;;;;5073487;28;20283;-74
2021/01/29 03:17:59;;;;;;;12.47;5.03;;;;;;;;;;5070796;28;20251;-74
2021/01/29 03:21:23;;;;;;;10.27;5.20;;;;;;;;;;5074871;28;20721;-74
2021/01/29 03:24:50;;;;;;;10.30;5.53;;;;;;;;;;5073631;28;20206;-74
2021/01/29 03:28:15;;;;;;;11.27;5.67;;;;;;;;;;5073231;28;20237;-74
2021/01/29 03:31:42;;;;;;;9.53;5.00;;;;;;;;;;5073913;28;20209;-74
2021/01/29 03:35:10;;;;;;;10.20;4.80;;;;;;;;;;5072097;28;20203;-74
2021/01/29 03:38:36;;;;;;;10.07;4.47;;;;;;;;;;5072956;28;20214;-74
2021/01/29 03:42:02;;;;;;;9.00;4.73;;;;;;;;;;5068859;28;20238;-74
2021/01/29 03:45:29;;;;;;;12.03;6.03;;;;;;;;;;5071762;28;20231;-74
2021/01/29 03:48:58;;;;;;;12.70;6.20;;;;;;;;;;5073190;28;21006;-74
2021/01/29 03:52:25;;;;;;;11.17;6.17;;;;;;;;;;5070754;28;20245;-74
2021/01/29 03:55:56;;;;;;;17.07;6.83;;;;;;;;;;5065725;28;20191;-74
2021/01/29 03:59:23;;;;;;;17.80;6.93;;;;;;;;;;5072490;28;20206;-74
2021/01/29 04:02:56;;;;;;;10.90;5.60;;;;;;;;;;5072844;28;20280;-74
2021/01/29 04:06:23;;;;;;;13.43;5.70;;;;;;;;;;5069063;28;20588;-74
2021/01/29 04:09:51;;;;;;;13.33;5.93;;;;;;;;;;5071229;28;20226;-74
2021/01/29 04:13:24;;;;;;;12.77;6.00;;;;;;;;;;5071795;28;20226;-74
2021/01/29 04:16:35;;;;;;;15.83;6.30;;;;;;;;;;5070196;28;20264;-74
2021/01/29 04:19:41;;;;;;;14.57;6.70;;;;;;;;;;5067523;28;20225;-74
2021/01/29 04:22:49;;;;;;;13.13;6.70;;;;;;;;;;5064313;28;20239;-74
2021/01/29 04:25:58;;;;;;;13.30;6.17;;;;;;;;;;5065400;28;20255;-74
2021/01/29 04:29:05;;;;;;;12.37;5.90;;;;;;;;;;5072536;28;20202;-74
2021/01/29 04:32:11;;;;;;;16.43;6.23;;;;;;;;;;5071302;28;20682;-74
2021/01/29 04:35:18;;;;;;;12.43;6.33;;;;;;;;;;5070236;28;20206;-74
2021/01/29 04:38:28;;;;;;;16.03;6.63;;;;;;;;;;5070857;28;20194;-74
2021/01/29 04:41:39;;;;;;;13.27;6.07;;;;;;;;;;5071814;28;20785;-74
2021/01/29 04:45:03;;;;;;;17.60;7.43;;;;;;;;;;5070878;28;20222;-74
2021/01/29 04:48:11;;;;;;;18.03;6.70;;;;;;;;;;5070698;28;20576;-74
2021/01/29 04:51:39;;;;;;;19.37;6.80;;;;;;;;;;5071533;28;20619;-74
2021/01/29 04:54:55;;;;;;;16.43;6.77;;;;;;;;;;5070635;28;20281;-74
2021/01/29 04:58:01;;;;;;;16.27;6.83;;;;;;;;;;5071058;28;20202;-74
2021/01/29 05:01:39;;;;;;;18.30;7.30;;;;;;;;;;5070313;28;20238;-74
2021/01/29 05:05:27;;;;;;;17.67;6.97;;;;;;;;;;5057657;28;20690;-74
2021/01/29 05:09:11;;;;;;;15.97;6.23;;;;;;;;;;5063096;28;20246;-74
2021/01/29 05:12:49;;;;;;;17.80;7.17;;;;;;;;;;5071065;28;20701;-74
2021/01/29 05:16:13;;;;;;;17.50;7.53;;;;;;;;;;5069150;28;20339;-74
2021/01/29 05:19:39;;;;;;;17.87;6.70;;;;;;;;;;5066124;28;20255;-74
2021/01/29 05:23:01;;;;;;;15.87;6.20;;;;;;;;;;5068212;28;20262;-74
2021/01/29 05:26:39;;;;;;;17.10;6.07;;;;;;;;;;5070466;28;20213;-74
2021/01/29 05:29:52;;;;;;;16.37;6.03;;;;;;;;;;4993573;28;20211;-74
2021/01/29 05:33:04;;;;;;;13.90;6.07;;;;;;;;;;4987652;28;20298;-74
2021/01/29 05:36:24;;;;;;;14.83;6.17;;;;;;;;;;5065244;28;20694;-78
2021/01/29 05:39:33;;;;;;;12.53;5.90;;;;;;;;;;5066234;28;20223;-75
2021/01/29 05:42:45;;;;;;;17.90;6.93;;;;;;;;;;5067187;28;20234;-72
2021/01/29 05:45:53;;;;;;;16.87;7.60;;;;;;;;;;5068913;28;20202;-72
2021/01/29 05:49:14;;;;;;;16.67;7.10;;;;;;;;;;5062661;28;20730;-72
2021/01/29 05:52:44;;;;;;;14.77;6.57;;;;;;;;;;5069845;28;20341;-73
2021/01/29 05:55:54;;;;;;;16.23;6.43;;;;;;;;;;5070616;28;20214;-72
2021/01/29 05:59:39;;;;;;;12.77;5.63;;;;;;;;;;5070657;28;20693;-73
2021/01/29 06:02:54;;;;;;;20.57;6.10;;;;;;;;;;5070538;28;20249;-75
2021/01/29 06:06:07;;;;;;;13.57;6.13;;;;;;;;;;5051515;28;20270;-75
2021/01/29 06:09:23;;;;;;;15.73;6.43;;;;;;;;;;5051427;28;20186;-74
2021/01/29 06:12:42;;;;;;;17.30;6.70;;;;;;;;;;5053791;28;20258;-74
2021/01/29 06:16:12;;;;;;;16.33;7.70;;;;;;;;;;5058421;28;20211;-75
2021/01/29 06:19:35;;;;;;;16.47;7.10;;;;;;;;;;5050406;28;20235;-75
2021/01/29 06:23:01;;;;;;;15.47;6.97;;;;;;;;;;5054260;28;20277;-74
2021/01/29 06:26:11;;;;;;;14.33;6.10;;;;;;;;;;5053994;28;20214;-74
2021/01/29 06:29:27;;;;;;;13.17;5.77;;;;;;;;;;5073691;28;20307;-74
2021/01/29 06:32:52;;;;;;;14.17;5.63;;;;;;;;;;5083175;28;20261;-74
2021/01/29 06:36:14;;;;;;;16.23;7.27;;;;;;;;;;5082969;28;20260;-74
2021/01/29 06:39:26;;;;;;;16.37;7.17;;;;;;;;;;5076507;28;20210;-73
2021/01/29 06:42:56;;;;;;;12.27;5.50;;;;;;;;;;5073260;28;20357;-74
2021/01/29 06:46:19;;;;;;;14.63;6.00;;;;;;;;;;5067019;28;20245;-74
2021/01/29 06:49:31;;;;;;;17.43;6.50;;;;;;;;;;5062703;28;20257;-74
2021/01/29 06:52:52;;;;;;;15.50;6.70;;;;;;;;;;5072012;28;20242;-74
2021/01/29 06:56:17;;;;;;;17.20;7.33;;;;;;;;;;5067859;28;20721;-73
2021/01/29 06:59:32;;;;;;;14.40;6.47;;;;;;;;;;5073004;28;20207;-73
2021/01/29 07:02:54;;;;;;;12.53;6.00;;;;;;;;;;5055685;28;20230;-73
2021/01/29 07:06:04;;;;;;;15.33;6.70;;;;;;;;;;5073362;28;20226;-73
2021/01/29 07:09:18;;;;;;;16.73;6.70;;;;;;;;;;5064093;28;20276;-73
2021/01/29 07:12:35;;;;;;;15.13;6.97;;;;;;;;;;5057373;28;20218;-74
2021/01/29 07:15:45;;;;;;;20.37;7.90;;;;;;;;;;5073858;28;20678;-75
2021/01/29 07:19:07;;;;;;;14.63;6.83;;;;;;;;;;5052677;28;20214;-73
2021/01/29 07:22:17;;;;;;;14.77;6.50;;;;;;;;;;5056397;28;20238;-75
2021/01/29 07:25:26;;;;;;;15.87;7.37;;;;;;;;;;5072658;28;20187;-75
2021/01/29 07:28:41;;;;;;;16.23;7.83;;;;;;;;;;5072894;28;20256;-75
2021/01/29 07:31:48;;;;;;;16.47;7.13;;;;;;;;;;5072039;28;20277;-75
2021/01/29 07:34:57;;;;;;;17.80;8.37;;;;;;;;;;5073378;28;20209;-75
2021/01/29 07:38:20;;;;;;;13.63;6.97;;;;;;;;;;5072241;28;20230;-73
2021/01/29 07:41:36;;;;;;;14.53;6.27;;;;;;;;;;5069583;28;20256;-78
2021/01/29 07:44:47;;;;;;;12.50;5.40;;;;;;;;;;5071135;28;20582;-78
2021/01/29 07:48:11;;;;;;;12.07;6.07;;;;;;;;;;5067831;28;20198;-76
2021/01/29 07:51:21;;;;;;;14.37;6.30;;;;;;;;;;5071551;28;20332;-75
2021/01/29 07:54:31;;;;;;;13.47;6.30;;;;;;;;;;5075157;28;20667;-76
2021/01/29 07:57:55;;;;;;;14.10;6.53;;;;;;;;;;5072035;28;20697;-75
2021/01/29 08:01:06;;;;;;;12.80;6.27;;;;;;;;;;5071953;28;20225;-75
2021/01/29 08:04:23;;;;;;;14.27;6.57;;;;;;;;;;5072009;28;20246;-76
2021/01/29 08:07:32;;;;;;;14.93;7.00;;;;;;;;;;5072074;28;20758;-75
2021/01/29 08:10:38;;;;;;;14.67;6.50;;;;;;;;;;5071838;28;20211;-74
2021/01/29 08:13:59;;;;;;;13.27;6.50;;;;;;;;;;5071381;28;20218;-74
2021/01/29 08:17:22;;;;;;;15.30;6.70;;;;;;;;;;5072570;28;20614;-75
2021/01/29 08:20:41;;;;;;;16.00;7.83;;;;;;;;;;5071558;28;20301;-72
2021/01/29 08:23:53;;;;;;;14.23;6.83;;;;;;;;;;5071225;28;20218;-72
2021/01/29 08:27:03;;;;;;;14.07;7.00;;;;;;;;;;5072268;28;20256;-72
2021/01/29 08:30:16;;;;;;;15.27;7.43;;;;;;;;;;5071495;28;20215;-75
2021/01/29 08:34:10;;;;;;;18.53;8.10;;;;;;;;;;5062352;28;20281;-75
2021/01/29 08:37:39;;;;;;;19.37;8.23;;;;;;;;;;5050926;28;20214;-72
2021/01/29 08:40:48;;;;;;;19.70;7.97;;;;;;;;;;5051156;28;20202;-73
2021/01/29 08:44:00;;;;;;;29.17;14.40;;;;;;;;;;5051793;28;20836;-73
2021/01/29 08:47:26;;;;;;;24.33;12.83;;;;;;;;;;5052874;28;20210;-72
2021/01/29 08:50:37;;;;;;;11.83;6.27;;;;;;;;;;5065289;28;20226;-72
2021/01/29 08:53:57;;;;;;;13.97;6.53;;;;;;;;;;5064147;28;20230;-75
2021/01/29 08:57:05;;;;;;;20.80;8.80;;;;;;;;;;5070197;28;20296;-72
2021/01/29 09:00:12;;;;;;;25.10;12.37;;;;;;;;;;5069913;28;20209;-72
2021/01/29 09:03:21;;;;;;;30.63;15.93;;;;;;;;;;5069823;28;20226;-75
2021/01/29 09:06:29;;;;;;;27.93;15.03;;;;;;;;;;5070374;28;20256;-72
2021/01/29 09:09:36;;;;;;;25.93;11.83;;;;;;;;;;5070407;28;20693;-75
2021/01/29 09:12:41;;;;;;;19.60;7.20;;;;;;;;;;5070110;28;20282;-73
2021/01/29 09:15:50;;;;;;;20.40;9.17;;;;;;;;;;5066679;28;20302;-72
2021/01/29 09:18:58;;;;;;;19.33;9.53;;;;;;;;;;5069339;28;20253;-72
2021/01/29 09:22:08;;;;;;;14.83;6.37;;;;;;;;;;5066080;28;20648;-74
2021/01/29 09:25:20;;;;;;;23.57;12.33;;;;;;;;;;5058322;28;20214;-73
2021/01/29 09:28:28;;;;;;;16.67;8.03;;;;;;;;;;5068325;28;20222;-73
2021/01/29 09:31:35;;;;;;;19.20;8.93;;;;;;;;;;5069306;28;20252;-72
2021/01/29 09:34:41;;;;;;;23.10;11.83;;;;;;;;;;5065141;28;20202;-72
2021/01/29 09:37:48;;;;;;;25.03;11.80;;;;;;;;;;5070714;28;20252;-73
2021/01/29 09:40:57;;;;;;;21.77;9.93;;;;;;;;;;5070431;28;20248;-73
2021/01/29 09:44:04;;;;;;;27.70;12.47;;;;;;;;;;5065151;28;20678;-73
2021/01/29 09:47:11;;;;;;;26.80;12.10;;;;;;;;;;5081608;28;20221;-73
2021/01/29 09:50:19;;;;;;;25.37;11.90;;;;;;;;;;5069885;28;20260;-74
2021/01/29 09:53:27;;;;;;;26.00;11.27;;;;;;;;;;5082549;28;20230;-77
2021/01/29 09:56:38;;;;;;;29.00;11.20;;;;;;;;;;5072577;28;20297;-77
2021/01/29 09:59:51;;;;;;;23.70;10.33;;;;;;;;;;5073853;28;20633;-73
2021/01/29 10:02:59;;;;;;;20.13;9.57;;;;;;;;;;5066454;28;20450;-73
2021/01/29 10:06:06;;;;;;;14.33;6.50;;;;;;;;;;5070931;28;20690;-74
2021/01/29 10:09:13;;;;;;;19.13;8.27;;;;;;;;;;5070807;28;20210;-73
2021/01/29 10:12:20;;;;;;;14.87;7.43;;;;;;;;;;5065888;28;20229;-74
2021/01/29 10:15:30;;;;;;;14.70;7.63;;;;;;;;;;5052299;28;20577;-74
2021/01/29 10:18:36;;;;;;;15.03;7.37;;;;;;;;;;5071765;28;20217;-73
2021/01/29 10:22:02;;;;;;;18.43;7.60;;;;;;;;;;5071315;28;20244;-73
2021/01/29 10:25:15;;;;;;;13.53;6.33;;;;;;;;;;5071790;28;20233;-73
2021/01/29 10:28:24;;;;;;;11.43;5.80;;;;;;;;;;5052035;28;20226;-74
2021/01/29 10:31:31;;;;;;;9.97;4.93;;;;;;;;;;5053453;28;20211;-74
2021/01/29 10:34:40;;;;;;;8.50;4.63;;;;;;;;;;5071294;28;20217;-73
2021/01/29 10:37:48;;;;;;;5.47;2.60;;;;;;;;;;5074555;28;20716;-74
2021/01/29 10:40:57;;;;;;;4.83;1.90;;;;;;;;;;5074288;28;20633;-73
2021/01/29 10:44:09;;;;;;;4.43;2.30;;;;;;;;;;5068672;28;20607;-74
2021/01/29 10:47:17;;;;;;;1.23;0.87;;;;;;;;;;5067897;28;20288;-73
2021/01/29 10:50:24;;;;;;;2.43;0.90;;;;;;;;;;5064482;28;20229;-75
2021/01/29 10:53:29;;;;;;;2.67;0.80;;;;;;;;;;5069597;28;20234;-74
2021/01/29 10:56:41;;;;;;;2.43;1.00;;;;;;;;;;5070268;28;20215;-76
2021/01/29 10:59:50;;;;;;;0.93;0.60;;;;;;;;;;5071186;28;20242;-74
2021/01/29 11:03:04;;;;;;;1.23;0.60;;;;;;;;;;5070163;28;20261;-74
2021/01/29 11:06:10;;;;;;;2.13;0.80;;;;;;;;;;5069930;28;20218;-73
2021/01/29 11:09:29;;;;;;;1.67;1.10;;;;;;;;;;5066428;28;20624;-74
2021/01/29 11:12:36;;;;;;;2.20;0.80;;;;;;;;;;5069686;28;20267;-74
2021/01/29 11:15:45;;;;;;;1.00;0.60;;;;;;;;;;5065678;28;20331;-73
2021/01/29 11:18:56;;;;;;;0.83;0.60;;;;;;;;;;5070256;28;20288;-75
2021/01/29 11:22:19;;;;;;;1.10;0.70;;;;;;;;;;5069801;28;20773;-74
2021/01/29 11:25:42;;;;;;;2.33;1.00;;;;;;;;;;5063194;28;20329;-74
2021/01/29 11:28:55;;;;;;;3.17;0.90;;;;;;;;;;5060817;28;20305;-73
2021/01/29 11:32:19;;;;;;;1.20;0.60;;;;;;;;;;5070267;28;20364;-73
2021/01/29 11:35:31;;;;;;;2.90;0.60;;;;;;;;;;5077672;28;20234;-75
2021/01/29 11:38:40;;;;;;;2.53;0.90;;;;;;;;;;5066598;28;20312;-75
2021/01/29 11:41:52;;;;;;;2.07;0.63;;;;;;;;;;5050965;28;20737;-74
2021/01/29 11:45:00;;;;;;;0.80;0.40;;;;;;;;;;5067306;28;20249;-74
2021/01/29 11:48:12;;;;;;;0.50;0.50;;;;;;;;;;5070562;28;20745;-72
2021/01/29 11:51:20;;;;;;;1.00;0.60;;;;;;;;;;5070575;28;20309;-72
2021/01/29 11:54:28;;;;;;;1.43;0.70;;;;;;;;;;5070856;28;20290;-72
2021/01/29 11:57:37;;;;;;;7.15;1.85;;;;;;;;;;5070335;28;20340;-73
2021/01/29 12:00:44;;;;;;;13.05;2.10;;;;;;;;;;5061899;28;20210;-75
2021/01/29 12:03:55;;;;;;;1.30;0.80;;;;;;;;;;5051398;28;20665;-76
2021/01/29 12:07:01;;;;;;;1.73;0.90;;;;;;;;;;5066311;28;20237;-76
2021/01/29 12:10:15;;;;;;;1.85;0.70;;;;;;;;;;5070612;28;20210;-78
2021/01/29 12:13:20;;;;;;;2.05;0.70;;;;;;;;;;5071989;28;20225;-78
2021/01/29 12:16:26;;;;;;;1.88;0.70;;;;;;;;;;5055034;28;20249;-78
2021/01/29 12:19:33;;;;;;;2.13;1.00;;;;;;;;;;5062760;28;20233;-78
2021/01/29 12:22:39;;;;;;;1.90;1.02;;;;;;;;;;5070153;28;20233;-73
2021/01/29 12:26:05;;;;;;;3.55;1.38;;;;;;;;;;5070951;28;20217;-75
2021/01/29 12:29:22;;;;;;;3.83;1.15;;;;;;;;;;5070441;28;20210;-76
2021/01/29 12:32:41;;;;;;;2.78;0.75;;;;;;;;;;5068085;28;20249;-76
2021/01/29 12:35:48;;;;;;;1.05;0.60;;;;;;;;;;5064920;28;20217;-75
2021/01/29 12:38:56;;;;;;;1.30;0.77;;;;;;;;;;5071777;28;20248;-75
2021/01/29 12:42:04;;;;;;;0.85;0.63;;;;;;;;;;5070677;28;20230;-75
2021/01/29 12:45:14;;;;;;;2.00;0.83;;;;;;;;;;5062693;28;20240;-75
2021/01/29 12:48:23;;;;;;;1.10;0.60;;;;;;;;;;5052936;28;20302;-75
2021/01/29 12:51:31;;;;;;;1.48;0.70;;;;;;;;;;5068056;28;20222;-74
2021/01/29 12:54:42;;;;;;;1.85;0.60;;;;;;;;;;5071597;28;20213;-75
2021/01/29 12:57:58;;;;;;;1.85;0.65;;;;;;;;;;5070000;28;20582;-76
2021/01/29 13:01:04;;;;;;;6.88;2.42;;;;;;;;;;5069381;28;20261;-75
2021/01/29 13:04:11;;;;;;;3.75;0.70;;;;;;;;;;5061679;28;20260;-75
2021/01/29 13:07:17;;;;;;;1.23;0.60;;;;;;;;;;5070590;28;20828;-75
2021/01/29 13:10:26;;;;;;;1.40;0.70;;;;;;;;;;5064886;28;20210;-75
2021/01/29 13:13:35;;;;;;;2.05;0.70;;;;;;;;;;5069948;28;20729;-75
2021/01/29 13:16:42;;;;;;;1.52;0.80;;;;;;;;;;5068235;28;20218;-75
2021/01/29 13:19:47;;;;;;;2.25;0.70;;;;;;;;;;5051338;28;20214;-75
2021/01/29 13:22:55;;;;;;;2.73;1.23;;;;;;;;;;5068854;28;20257;-75
2021/01/29 13:26:01;;;;;;;4.73;1.17;;;;;;;;;;5065917;28;20643;-77
2021/01/29 13:29:17;;;;;;;3.40;1.45;;;;;;;;;;5065613;28;20194;-75
2021/01/29 13:32:23;;;;;;;1.20;0.73;;;;;;;;;;5066676;28;20241;-75
2021/01/29 13:35:32;;;;;;;2.37;0.80;;;;;;;;;;5060219;28;20214;-75
2021/01/29 13:38:40;;;;;;;3.50;1.30;;;;;;;;;;5066047;28;20252;-75
2021/01/29 13:41:46;;;;;;;3.25;0.70;;;;;;;;;;5070094;28;20226;-75
2021/01/29 13:44:53;;;;;;;1.73;0.75;;;;;;;;;;5069940;28;20252;-75
2021/01/29 13:48:02;;;;;;;3.05;0.77;;;;;;;;;;5068686;28;20218;-75
2021/01/29 13:51:22;;;;;;;2.20;1.00;;;;;;;;;;5082588;28;20210;-75
2021/01/29 13:54:35;;;;;;;2.63;0.90;;;;;;;;;;5062581;28;20410;-78
2021/01/29 13:57:41;;;;;;;4.78;1.10;;;;;;;;;;5064221;28;20583;-78
2021/01/29 14:00:47;;;;;;;2.67;0.95;;;;;;;;;;5070436;28;20202;-78
2021/01/29 14:03:55;;;;;;;4.13;0.82;;;;;;;;;;5071030;28;20630;-78
2021/01/29 14:07:00;;;;;;;4.55;0.85;;;;;;;;;;5078817;28;20274;-78
2021/01/29 14:10:07;;;;;;;2.10;0.80;;;;;;;;;;5074527;28;20253;-77
2021/01/29 14:13:16;;;;;;;3.33;0.90;;;;;;;;;;5087625;28;20214;-77
2021/01/29 14:16:23;;;;;;;1.77;1.00;;;;;;;;;;5072656;28;20653;-72
2021/01/29 14:19:34;;;;;;;3.65;0.77;;;;;;;;;;5050099;28;20198;-73
2021/01/29 14:22:42;;;;;;;2.03;0.77;;;;;;;;;;5060713;28;20257;-73
2021/01/29 14:25:53;;;;;;;6.15;1.42;;;;;;;;;;5060438;28;20250;-73
2021/01/29 14:29:01;;;;;;;2.90;0.90;;;;;;;;;;5049990;28;20659;-73
2021/01/29 14:32:18;;;;;;;1.83;0.77;;;;;;;;;;5049792;28;20246;-72
2021/01/29 14:35:25;;;;;;;1.58;0.93;;;;;;;;;;5059831;28;20237;-76
2021/01/29 14:38:58;;;;;;;5.55;0.90;;;;;;;;;;5070479;28;20217;-75
2021/01/29 14:42:13;;;;;;;2.20;0.75;;;;;;;;;;5070980;28;20297;-75
2021/01/29 14:45:27;;;;;;;2.03;0.70;;;;;;;;;;5092776;28;20206;-75
2021/01/29 14:49:05;;;;;;;2.03;0.90;;;;;;;;;;5053643;28;20816;-76
2021/01/29 14:52:11;;;;;;;1.90;0.80;;;;;;;;;;5058569;28;20238;-76
2021/01/29 14:55:21;;;;;;;1.88;1.00;;;;;;;;;;5072605;28;20213;-76
2021/01/29 14:58:28;;;;;;;3.50;0.80;;;;;;;;;;5072286;28;20260;-75
2021/01/29 15:01:37;;;;;;;3.17;1.13;;;;;;;;;;5076841;28;20587;-75
2021/01/29 15:04:42;;;;;;;3.90;1.30;;;;;;;;;;5053302;28;20222;-76
2021/01/29 15:07:50;;;;;;;2.55;0.90;;;;;;;;;;5058146;28;20249;-76
2021/01/29 15:10:57;;;;;;;5.85;1.20;;;;;;;;;;5071956;28;20202;-75
2021/01/29 15:14:03;;;;;;;2.85;1.27;;;;;;;;;;5075410;28;20218;-75
2021/01/29 15:17:09;;;;;;;4.38;2.10;;;;;;;;;;5086088;28;20531;-77
2021/01/29 15:20:33;;;;;;;6.45;3.30;;;;;;;;;;5075655;28;20257;-72
2021/01/29 15:23:38;;;;;;;7.47;2.22;;;;;;;;;;5067890;28;20233;-72
2021/01/29 15:26:52;;;;;;;6.15;2.28;;;;;;;;;;5069095;28;20686;-72
2021/01/29 15:29:59;;;;;;;6.60;1.67;;;;;;;;;;5079552;28;20210;-72
2021/01/29 15:33:04;;;;;;;5.60;1.60;;;;;;;;;;5070869;28;20234;-72
2021/01/29 15:36:31;;;;;;;6.63;1.77;;;;;;;;;;5070150;28;20217;-72
2021/01/29 15:39:37;;;;;;;4.77;1.70;;;;;;;;;;5065517;28;20317;-72
2021/01/29 15:42:42;;;;;;;4.90;1.92;;;;;;;;;;5072592;28;20234;-74
2021/01/29 15:45:56;;;;;;;6.13;1.80;;;;;;;;;;5066921;28;20252;-74
2021/01/29 15:49:04;;;;;;;8.63;2.30;;;;;;;;;;5070555;28;20808;-74
2021/01/29 15:52:13;;;;;;;7.15;2.10;;;;;;;;;;5069892;28;20257;-74
2021/01/29 15:55:23;;;;;;;8.85;3.58;;;;;;;;;;5070439;28;20603;-74
2021/01/29 15:58:55;;;;;;;8.43;3.65;;;;;;;;;;5066939;28;20214;-73
2021/01/29 16:02:41;;;;;;;7.18;2.42;;;;;;;;;;5074225;28;20248;-76
2021/01/29 16:05:56;;;;;;;6.75;2.10;;;;;;;;;;5071807;28;20198;-74
2021/01/29 16:09:08;;;;;;;8.20;2.20;;;;;;;;;;5072294;28;20202;-74
2021/01/29 16:12:30;;;;;;;8.77;2.75;;;;;;;;;;5071966;28;20222;-74
2021/01/29 16:15:35;;;;;;;12.93;3.03;;;;;;;;;;5071605;28;20256;-74
2021/01/29 16:18:48;;;;;;;4.30;0.90;;;;;;;;;;5072023;28;20298;-74
2021/01/29 16:21:52;;;;;;;1.55;0.95;;;;;;;;;;5071664;28;20720;-75
2021/01/29 16:24:57;;;;;;;3.37;0.90;;;;;;;;;;5072506;28;20229;-74
2021/01/29 16:28:02;;;;;;;3.83;0.83;;;;;;;;;;5072049;28;20241;-74
2021/01/29 16:31:08;;;;;;;1.67;0.60;;;;;;;;;;5071669;28;20256;-74
2021/01/29 16:34:15;;;;;;;2.33;0.80;;;;;;;;;;5071641;28;20233;-74
2021/01/29 16:37:20;;;;;;;2.30;1.10;;;;;;;;;;5071761;28;20219;-74
2021/01/29 16:40:30;;;;;;;5.10;1.20;;;;;;;;;;5071442;28;20206;-74
2021/01/29 16:43:35;;;;;;;4.37;1.37;;;;;;;;;;5071059;28;20253;-75
2021/01/29 16:46:40;;;;;;;4.50;1.20;;;;;;;;;;5071839;28;20206;-74
2021/01/29 16:49:46;;;;;;;5.50;2.20;;;;;;;;;;5071889;28;20639;-74
2021/01/29 16:52:56;;;;;;;4.90;1.70;;;;;;;;;;5071039;28;20772;-75
2021/01/29 16:56:02;;;;;;;9.27;2.60;;;;;;;;;;5071396;28;20210;-75
2021/01/29 16:59:10;;;;;;;9.00;2.93;;;;;;;;;;5071307;28;20264;-75
2021/01/29 17:02:18;;;;;;;5.33;1.90;;;;;;;;;;5075605;28;20254;-74
2021/01/29 17:05:25;;;;;;;4.50;1.50;;;;;;;;;;5086619;28;20224;-74
2021/01/29 17:08:33;;;;;;;9.47;2.20;;;;;;;;;;5080114;28;20234;-74
2021/01/29 17:11:39;;;;;;;6.00;2.43;;;;;;;;;;5071449;28;20191;-75
2021/01/29 17:14:44;;;;;;;5.23;1.67;;;;;;;;;;5071112;28;20245;-74
2021/01/29 17:17:49;;;;;;;6.83;1.57;;;;;;;;;;5072907;28;20740;-75
2021/01/29 17:21:00;;;;;;;5.57;1.80;;;;;;;;;;5072532;28;20601;-74
2021/01/29 17:24:06;;;;;;;6.73;1.93;;;;;;;;;;5071377;28;20226;-75
2021/01/29 17:27:13;;;;;;;5.80;2.00;;;;;;;;;;5071163;28;20190;-75
2021/01/29 17:30:22;;;;;;;5.37;1.83;;;;;;;;;;5071630;28;20206;-74
2021/01/29 17:33:28;;;;;;;11.23;4.07;;;;;;;;;;5070808;28;20828;-74
2021/01/29 17:36:34;;;;;;;5.87;2.33;;;;;;;;;;5070584;28;20206;-75
2021/01/29 17:39:41;;;;;;;4.97;1.90;;;;;;;;;;5071251;28;20263;-75
2021/01/29 17:42:45;;;;;;;5.70;1.90;;;;;;;;;;5076285;28;20245;-74
2021/01/29 17:45:51;;;;;;;3.10;1.30;;;;;;;;;;5076822;28;20286;-73
2021/01/29 17:49:10;;;;;;;1.73;1.20;;;;;;;;;;5066679;28;20213;-74
2021/01/29 17:52:18;;;;;;;1.80;0.70;;;;;;;;;;5070434;28;20230;-74
2021/01/29 17:55:25;;;;;;;1.83;0.97;;;;;;;;;;5069186;28;20198;-74
2021/01/29 17:58:29;;;;;;;1.00;0.80;;;;;;;;;;5066789;28;20216;-74
2021/01/29 18:01:46;;;;;;;1.97;0.93;;;;;;;;;;5071105;28;20801;-74
2021/01/29 18:04:56;;;;;;;1.93;1.00;;;;;;;;;;5070425;28;20311;-75
2021/01/29 18:08:05;;;;;;;2.03;1.20;;;;;;;;;;5066457;28;20296;-74
2021/01/29 18:11:23;;;;;;;1.97;0.80;;;;;;;;;;5066775;28;20193;-75
2021/01/29 18:14:31;;;;;;;3.90;1.20;;;;;;;;;;5066213;28;20198;-76
2021/01/29 18:17:41;;;;;;;1.83;1.17;;;;;;;;;;5070778;28;20210;-75
2021/01/29 18:20:47;;;;;;;2.70;1.10;;;;;;;;;;5073675;28;20245;-75
2021/01/29 18:23:54;;;;;;;2.17;0.80;;;;;;;;;;5073968;28;20229;-76
2021/01/29 18:26:58;;;;;;;3.60;1.20;;;;;;;;;;5073460;28;20214;-76
2021/01/29 18:30:03;;;;;;;2.07;1.20;;;;;;;;;;5072906;28;20275;-75
2021/01/29 18:33:09;;;;;;;42.97;15.33;;;;;;;;;;5072630;28;20328;-75
2021/01/29 18:36:15;;;;;;;13.13;4.33;;;;;;;;;;5074498;28;20202;-75
2021/01/29 18:39:21;;;;;;;2.50;1.43;;;;;;;;;;5053950;28;20237;-75
2021/01/29 18:42:25;;;;;;;7.80;2.30;;;;;;;;;;5070416;28;20713;-76
2021/01/29 18:45:30;;;;;;;4.73;1.80;;;;;;;;;;5073920;28;20198;-76
2021/01/29 18:48:36;;;;;;;8.37;3.10;;;;;;;;;;5073997;28;20563;-76
2021/01/29 18:51:40;;;;;;;3.27;1.20;;;;;;;;;;5053730;28;20674;-75
2021/01/29 18:54:45;;;;;;;2.97;1.00;;;;;;;;;;5072298;28;20613;-76
2021/01/29 18:57:50;;;;;;;4.57;1.33;;;;;;;;;;5074384;28;20230;-76
2021/01/29 19:00:54;;;;;;;2.47;1.00;;;;;;;;;;5073963;28;20206;-77
2021/01/29 19:04:00;;;;;;;3.80;1.23;;;;;;;;;;5073614;28;20260;-77
2021/01/29 19:07:05;;;;;;;1.50;0.97;;;;;;;;;;5073402;28;20311;-77
2021/01/29 19:10:13;;;;;;;2.90;1.03;;;;;;;;;;5073757;28;20237;-79